sensor_id;sensor_type;location;lat;lon;timestamp;P1;durP1;ratioP1;P2;durP2;ratioP2
27558;SDS011;15002;52.028;5.670;2023-04-03T00:02:06;3.42;;;1.40;;
27558;SDS011;15002;52.028;5.670;2023-04-03T00:04:32;2.20;;;1.00;;
27558;SDS011;15002;52.028;5.670;2023-04-03T00:06:58;8.30;;;1.30;;
27558;SDS011;15002;52.028;5.670;2023-04-03T00:09:23;1.42;;;1.05;;
27558;SDS011;15002;52.028;5.670;2023-04-03T00:11:49;2.90;;;1.30;;
27558;SDS011;15002;52.028;5.670;2023-04-03T00:14:15;5.75;;;1.70;;
27558;SDS011;15002;52.028;5.670;2023-04-03T00:16:40;2.78;;;1.17;;
27558;SDS011;15002;52.028;5.670;2023-04-03T00:19:06;3.85;;;1.50;;
27558;SDS011;15002;52.028;5.670;2023-04-03T00:21:32;2.58;;;1.20;;
27558;SDS011;15002;52.028;5.670;2023-04-03T00:23:57;2.67;;;1.02;;
27558;SDS011;15002;52.028;5.670;2023-04-03T00:26:23;3.25;;;1.40;;
27558;SDS011;15002;52.028;5.670;2023-04-03T00:28:49;2.53;;;1.30;;
27558;SDS011;15002;52.028;5.670;2023-04-03T00:31:15;3.45;;;1.75;;
27558;SDS011;15002;52.028;5.670;2023-04-03T00:33:41;2.85;;;1.70;;
27558;SDS011;15002;52.028;5.670;2023-04-03T00:36:08;3.00;;;1.77;;
27558;SDS011;15002;52.028;5.670;2023-04-03T00:38:35;2.13;;;1.10;;
27558;SDS011;15002;52.028;5.670;2023-04-03T00:41:01;4.07;;;1.50;;
27558;SDS011;15002;52.028;5.670;2023-04-03T00:43:26;3.40;;;1.02;;
27558;SDS011;15002;52.028;5.670;2023-04-03T00:45:53;5.78;;;1.45;;
27558;SDS011;15002;52.028;5.670;2023-04-03T00:48:26;6.22;;;1.58;;
27558;SDS011;15002;52.028;5.670;2023-04-03T00:50:55;3.83;;;1.15;;
27558;SDS011;15002;52.028;5.670;2023-04-03T00:53:23;5.57;;;1.50;;
27558;SDS011;15002;52.028;5.670;2023-04-03T00:55:52;5.65;;;1.60;;
27558;SDS011;15002;52.028;5.670;2023-04-03T00:58:20;3.13;;;1.45;;
27558;SDS011;15002;52.028;5.670;2023-04-03T01:00:53;2.38;;;1.30;;
27558;SDS011;15002;52.028;5.670;2023-04-03T01:03:22;4.68;;;1.70;;
27558;SDS011;15002;52.028;5.670;2023-04-03T01:05:48;1.88;;;1.20;;
27558;SDS011;15002;52.028;5.670;2023-04-03T01:08:14;4.78;;;1.30;;
27558;SDS011;15002;52.028;5.670;2023-04-03T01:10:40;4.07;;;1.45;;
27558;SDS011;15002;52.028;5.670;2023-04-03T01:13:20;2.58;;;1.13;;
27558;SDS011;15002;52.028;5.670;2023-04-03T01:15:49;2.90;;;1.33;;
27558;SDS011;15002;52.028;5.670;2023-04-03T01:18:15;6.03;;;1.90;;
27558;SDS011;15002;52.028;5.670;2023-04-03T01:25:55;3.95;;;1.10;;
27558;SDS011;15002;52.028;5.670;2023-04-03T01:30:59;2.20;;;1.40;;
27558;SDS011;15002;52.028;5.670;2023-04-03T01:33:44;2.97;;;1.20;;
27558;SDS011;15002;52.028;5.670;2023-04-03T01:36:13;2.45;;;1.33;;
27558;SDS011;15002;52.028;5.670;2023-04-03T01:38:45;1.58;;;1.30;;
27558;SDS011;15002;52.028;5.670;2023-04-03T01:41:11;3.35;;;1.48;;
27558;SDS011;15002;52.028;5.670;2023-04-03T01:43:37;4.63;;;1.08;;
27558;SDS011;15002;52.028;5.670;2023-04-03T01:46:03;2.88;;;1.52;;
27558;SDS011;15002;52.028;5.670;2023-04-03T01:48:28;1.92;;;1.33;;
27558;SDS011;15002;52.028;5.670;2023-04-03T01:50:54;4.38;;;1.45;;
27558;SDS011;15002;52.028;5.670;2023-04-03T01:53:20;2.78;;;1.38;;
27558;SDS011;15002;52.028;5.670;2023-04-03T01:55:46;2.67;;;1.10;;
27558;SDS011;15002;52.028;5.670;2023-04-03T01:58:13;3.72;;;1.48;;
27558;SDS011;15002;52.028;5.670;2023-04-03T02:00:39;3.60;;;1.40;;
27558;SDS011;15002;52.028;5.670;2023-04-03T02:03:05;6.95;;;1.83;;
27558;SDS011;15002;52.028;5.670;2023-04-03T02:05:31;2.72;;;1.60;;
27558;SDS011;15002;52.028;5.670;2023-04-03T02:07:58;4.18;;;1.45;;
27558;SDS011;15002;52.028;5.670;2023-04-03T02:10:23;3.35;;;1.40;;
27558;SDS011;15002;52.028;5.670;2023-04-03T02:12:49;4.75;;;1.52;;
27558;SDS011;15002;52.028;5.670;2023-04-03T02:15:15;3.03;;;1.38;;
27558;SDS011;15002;52.028;5.670;2023-04-03T02:17:41;2.55;;;1.60;;
27558;SDS011;15002;52.028;5.670;2023-04-03T02:20:07;2.58;;;1.40;;
27558;SDS011;15002;52.028;5.670;2023-04-03T02:22:33;3.55;;;1.70;;
27558;SDS011;15002;52.028;5.670;2023-04-03T02:24:59;2.78;;;1.35;;
27558;SDS011;15002;52.028;5.670;2023-04-03T02:27:25;3.00;;;1.58;;
27558;SDS011;15002;52.028;5.670;2023-04-03T02:29:51;5.38;;;1.70;;
27558;SDS011;15002;52.028;5.670;2023-04-03T02:32:17;2.75;;;1.88;;
27558;SDS011;15002;52.028;5.670;2023-04-03T02:34:43;2.83;;;1.65;;
27558;SDS011;15002;52.028;5.670;2023-04-03T02:37:08;7.07;;;1.52;;
27558;SDS011;15002;52.028;5.670;2023-04-03T02:39:34;2.75;;;1.40;;
27558;SDS011;15002;52.028;5.670;2023-04-03T02:42:00;2.47;;;1.27;;
27558;SDS011;15002;52.028;5.670;2023-04-03T02:44:26;2.80;;;1.63;;
27558;SDS011;15002;52.028;5.670;2023-04-03T02:46:51;4.38;;;1.63;;
27558;SDS011;15002;52.028;5.670;2023-04-03T02:49:17;5.32;;;1.40;;
27558;SDS011;15002;52.028;5.670;2023-04-03T02:51:42;3.53;;;1.33;;
27558;SDS011;15002;52.028;5.670;2023-04-03T02:54:08;3.78;;;1.77;;
27558;SDS011;15002;52.028;5.670;2023-04-03T02:56:34;2.10;;;1.20;;
27558;SDS011;15002;52.028;5.670;2023-04-03T02:59:00;3.92;;;1.75;;
27558;SDS011;15002;52.028;5.670;2023-04-03T03:01:25;5.43;;;1.83;;
27558;SDS011;15002;52.028;5.670;2023-04-03T03:03:56;2.15;;;1.58;;
27558;SDS011;15002;52.028;5.670;2023-04-03T03:06:22;4.55;;;1.65;;
27558;SDS011;15002;52.028;5.670;2023-04-03T03:08:47;4.10;;;1.35;;
27558;SDS011;15002;52.028;5.670;2023-04-03T03:11:13;4.50;;;1.50;;
27558;SDS011;15002;52.028;5.670;2023-04-03T03:13:39;4.75;;;1.60;;
27558;SDS011;15002;52.028;5.670;2023-04-03T03:16:05;3.50;;;1.90;;
27558;SDS011;15002;52.028;5.670;2023-04-03T03:18:31;3.92;;;1.73;;
27558;SDS011;15002;52.028;5.670;2023-04-03T03:20:58;4.38;;;1.83;;
27558;SDS011;15002;52.028;5.670;2023-04-03T03:23:25;3.22;;;1.50;;
27558;SDS011;15002;52.028;5.670;2023-04-03T03:25:55;4.22;;;1.85;;
27558;SDS011;15002;52.028;5.670;2023-04-03T03:28:22;4.43;;;1.88;;
27558;SDS011;15002;52.028;5.670;2023-04-03T03:30:48;3.30;;;1.90;;
27558;SDS011;15002;52.028;5.670;2023-04-03T03:33:14;5.82;;;1.95;;
27558;SDS011;15002;52.028;5.670;2023-04-03T03:35:40;4.18;;;1.70;;
27558;SDS011;15002;52.028;5.670;2023-04-03T03:38:06;4.82;;;1.85;;
27558;SDS011;15002;52.028;5.670;2023-04-03T03:40:32;3.63;;;2.00;;
27558;SDS011;15002;52.028;5.670;2023-04-03T03:42:57;5.25;;;1.70;;
27558;SDS011;15002;52.028;5.670;2023-04-03T03:45:23;4.10;;;2.03;;
27558;SDS011;15002;52.028;5.670;2023-04-03T03:47:49;4.57;;;2.10;;
27558;SDS011;15002;52.028;5.670;2023-04-03T03:50:15;2.20;;;1.67;;
27558;SDS011;15002;52.028;5.670;2023-04-03T03:52:41;3.40;;;1.77;;
27558;SDS011;15002;52.028;5.670;2023-04-03T03:55:06;5.50;;;2.33;;
27558;SDS011;15002;52.028;5.670;2023-04-03T03:57:32;4.28;;;1.65;;
27558;SDS011;15002;52.028;5.670;2023-04-03T03:59:58;2.42;;;1.73;;
27558;SDS011;15002;52.028;5.670;2023-04-03T04:02:24;6.85;;;2.05;;
27558;SDS011;15002;52.028;5.670;2023-04-03T04:04:50;3.45;;;1.85;;
27558;SDS011;15002;52.028;5.670;2023-04-03T04:07:15;3.70;;;1.83;;
27558;SDS011;15002;52.028;5.670;2023-04-03T04:09:41;5.25;;;2.20;;
27558;SDS011;15002;52.028;5.670;2023-04-03T04:12:06;6.85;;;1.80;;
27558;SDS011;15002;52.028;5.670;2023-04-03T04:14:32;5.07;;;2.10;;
27558;SDS011;15002;52.028;5.670;2023-04-03T04:16:58;5.13;;;2.03;;
27558;SDS011;15002;52.028;5.670;2023-04-03T04:19:23;6.55;;;1.80;;
27558;SDS011;15002;52.028;5.670;2023-04-03T04:21:49;3.28;;;1.65;;
27558;SDS011;15002;52.028;5.670;2023-04-03T04:24:15;3.78;;;1.75;;
27558;SDS011;15002;52.028;5.670;2023-04-03T04:26:40;4.13;;;2.00;;
27558;SDS011;15002;52.028;5.670;2023-04-03T04:29:08;4.97;;;2.13;;
27558;SDS011;15002;52.028;5.670;2023-04-03T04:31:35;4.57;;;2.03;;
27558;SDS011;15002;52.028;5.670;2023-04-03T04:34:00;8.02;;;2.20;;
27558;SDS011;15002;52.028;5.670;2023-04-03T04:36:26;5.65;;;2.15;;
27558;SDS011;15002;52.028;5.670;2023-04-03T04:38:52;4.78;;;2.60;;
27558;SDS011;15002;52.028;5.670;2023-04-03T04:41:19;3.25;;;2.00;;
27558;SDS011;15002;52.028;5.670;2023-04-03T04:43:47;4.97;;;2.38;;
27558;SDS011;15002;52.028;5.670;2023-04-03T04:46:17;4.90;;;1.98;;
27558;SDS011;15002;52.028;5.670;2023-04-03T04:48:43;5.10;;;1.95;;
27558;SDS011;15002;52.028;5.670;2023-04-03T04:51:09;5.07;;;2.30;;
27558;SDS011;15002;52.028;5.670;2023-04-03T04:53:34;5.30;;;2.20;;
27558;SDS011;15002;52.028;5.670;2023-04-03T04:56:00;6.63;;;1.90;;
27558;SDS011;15002;52.028;5.670;2023-04-03T04:58:26;7.00;;;2.63;;
27558;SDS011;15002;52.028;5.670;2023-04-03T05:01:01;7.28;;;2.30;;
27558;SDS011;15002;52.028;5.670;2023-04-03T05:03:31;6.57;;;2.03;;
27558;SDS011;15002;52.028;5.670;2023-04-03T05:05:57;5.95;;;1.80;;
27558;SDS011;15002;52.028;5.670;2023-04-03T05:08:22;4.90;;;2.28;;
27558;SDS011;15002;52.028;5.670;2023-04-03T05:10:49;6.60;;;2.33;;
27558;SDS011;15002;52.028;5.670;2023-04-03T05:13:14;6.55;;;2.03;;
27558;SDS011;15002;52.028;5.670;2023-04-03T05:15:40;5.32;;;2.15;;
27558;SDS011;15002;52.028;5.670;2023-04-03T05:18:06;5.63;;;2.22;;
27558;SDS011;15002;52.028;5.670;2023-04-03T05:20:32;4.80;;;2.08;;
27558;SDS011;15002;52.028;5.670;2023-04-03T05:22:58;8.88;;;2.60;;
27558;SDS011;15002;52.028;5.670;2023-04-03T05:25:24;5.63;;;2.30;;
27558;SDS011;15002;52.028;5.670;2023-04-03T05:27:50;7.25;;;2.35;;
27558;SDS011;15002;52.028;5.670;2023-04-03T05:30:16;7.68;;;2.28;;
27558;SDS011;15002;52.028;5.670;2023-04-03T05:32:41;6.65;;;2.08;;
27558;SDS011;15002;52.028;5.670;2023-04-03T05:35:07;5.03;;;2.08;;
27558;SDS011;15002;52.028;5.670;2023-04-03T05:37:34;7.00;;;2.67;;
27558;SDS011;15002;52.028;5.670;2023-04-03T05:40:00;3.25;;;2.03;;
27558;SDS011;15002;52.028;5.670;2023-04-03T05:42:25;4.03;;;2.00;;
27558;SDS011;15002;52.028;5.670;2023-04-03T05:44:51;4.88;;;2.10;;
27558;SDS011;15002;52.028;5.670;2023-04-03T05:47:17;7.22;;;2.67;;
27558;SDS011;15002;52.028;5.670;2023-04-03T05:49:43;8.13;;;2.05;;
27558;SDS011;15002;52.028;5.670;2023-04-03T05:52:31;6.00;;;2.35;;
27558;SDS011;15002;52.028;5.670;2023-04-03T05:55:00;4.43;;;2.40;;
27558;SDS011;15002;52.028;5.670;2023-04-03T05:57:26;2.75;;;1.55;;
27558;SDS011;15002;52.028;5.670;2023-04-03T05:59:52;5.63;;;2.03;;
27558;SDS011;15002;52.028;5.670;2023-04-03T06:02:19;7.65;;;2.22;;
27558;SDS011;15002;52.028;5.670;2023-04-03T06:04:48;5.13;;;1.83;;
27558;SDS011;15002;52.028;5.670;2023-04-03T06:07:14;2.95;;;1.52;;
27558;SDS011;15002;52.028;5.670;2023-04-03T06:09:42;4.20;;;1.80;;
27558;SDS011;15002;52.028;5.670;2023-04-03T06:12:08;4.63;;;2.05;;
27558;SDS011;15002;52.028;5.670;2023-04-03T06:14:34;5.75;;;1.90;;
27558;SDS011;15002;52.028;5.670;2023-04-03T06:17:00;5.75;;;1.63;;
27558;SDS011;15002;52.028;5.670;2023-04-03T06:19:26;5.75;;;1.45;;
27558;SDS011;15002;52.028;5.670;2023-04-03T06:21:52;5.28;;;1.98;;
27558;SDS011;15002;52.028;5.670;2023-04-03T06:24:18;6.00;;;1.63;;
27558;SDS011;15002;52.028;5.670;2023-04-03T06:26:46;5.32;;;1.58;;
27558;SDS011;15002;52.028;5.670;2023-04-03T06:29:12;5.22;;;1.65;;
27558;SDS011;15002;52.028;5.670;2023-04-03T06:31:38;3.80;;;1.38;;
27558;SDS011;15002;52.028;5.670;2023-04-03T06:34:04;7.10;;;1.88;;
27558;SDS011;15002;52.028;5.670;2023-04-03T06:36:31;3.20;;;1.48;;
27558;SDS011;15002;52.028;5.670;2023-04-03T06:38:57;3.88;;;1.40;;
27558;SDS011;15002;52.028;5.670;2023-04-03T06:41:22;4.40;;;1.35;;
27558;SDS011;15002;52.028;5.670;2023-04-03T06:43:48;2.00;;;1.42;;
27558;SDS011;15002;52.028;5.670;2023-04-03T06:46:18;3.92;;;1.40;;
27558;SDS011;15002;52.028;5.670;2023-04-03T06:48:45;10.88;;;2.35;;
27558;SDS011;15002;52.028;5.670;2023-04-03T06:51:18;4.35;;;1.40;;
27558;SDS011;15002;52.028;5.670;2023-04-03T06:53:50;4.57;;;1.42;;
27558;SDS011;15002;52.028;5.670;2023-04-03T06:56:17;5.22;;;1.75;;
27558;SDS011;15002;52.028;5.670;2023-04-03T06:58:44;4.88;;;1.67;;
27558;SDS011;15002;52.028;5.670;2023-04-03T07:01:11;5.05;;;1.60;;
27558;SDS011;15002;52.028;5.670;2023-04-03T07:03:38;6.95;;;1.48;;
27558;SDS011;15002;52.028;5.670;2023-04-03T07:06:05;5.60;;;1.63;;
27558;SDS011;15002;52.028;5.670;2023-04-03T07:08:32;4.40;;;1.42;;
27558;SDS011;15002;52.028;5.670;2023-04-03T07:10:59;2.67;;;1.30;;
27558;SDS011;15002;52.028;5.670;2023-04-03T07:13:25;3.47;;;1.52;;
27558;SDS011;15002;52.028;5.670;2023-04-03T07:15:51;6.15;;;1.52;;
27558;SDS011;15002;52.028;5.670;2023-04-03T07:18:18;3.88;;;1.50;;
27558;SDS011;15002;52.028;5.670;2023-04-03T07:20:44;4.93;;;1.35;;
27558;SDS011;15002;52.028;5.670;2023-04-03T07:23:10;2.00;;;1.02;;
27558;SDS011;15002;52.028;5.670;2023-04-03T07:25:36;3.92;;;1.55;;
27558;SDS011;15002;52.028;5.670;2023-04-03T07:28:03;6.72;;;1.77;;
27558;SDS011;15002;52.028;5.670;2023-04-03T07:30:29;4.22;;;1.58;;
27558;SDS011;15002;52.028;5.670;2023-04-03T07:32:54;6.10;;;1.55;;
27558;SDS011;15002;52.028;5.670;2023-04-03T07:35:20;5.47;;;1.50;;
27558;SDS011;15002;52.028;5.670;2023-04-03T07:37:46;6.72;;;1.30;;
27558;SDS011;15002;52.028;5.670;2023-04-03T07:40:11;3.63;;;1.20;;
27558;SDS011;15002;52.028;5.670;2023-04-03T07:42:37;3.30;;;1.30;;
27558;SDS011;15002;52.028;5.670;2023-04-03T07:45:03;5.45;;;1.23;;
27558;SDS011;15002;52.028;5.670;2023-04-03T07:47:29;6.55;;;1.30;;
27558;SDS011;15002;52.028;5.670;2023-04-03T07:49:56;6.45;;;1.50;;
27558;SDS011;15002;52.028;5.670;2023-04-03T07:52:22;4.55;;;1.38;;
27558;SDS011;15002;52.028;5.670;2023-04-03T07:54:48;2.65;;;0.90;;
27558;SDS011;15002;52.028;5.670;2023-04-03T07:57:14;3.25;;;1.23;;
27558;SDS011;15002;52.028;5.670;2023-04-03T07:59:39;2.30;;;1.20;;
27558;SDS011;15002;52.028;5.670;2023-04-03T08:02:08;4.10;;;1.02;;
27558;SDS011;15002;52.028;5.670;2023-04-03T08:04:34;2.42;;;0.93;;
27558;SDS011;15002;52.028;5.670;2023-04-03T08:07:00;1.83;;;0.95;;
27558;SDS011;15002;52.028;5.670;2023-04-03T08:09:26;3.08;;;1.13;;
27558;SDS011;15002;52.028;5.670;2023-04-03T08:11:52;4.55;;;1.10;;
27558;SDS011;15002;52.028;5.670;2023-04-03T08:14:18;3.83;;;0.95;;
27558;SDS011;15002;52.028;5.670;2023-04-03T08:16:46;3.00;;;1.13;;
27558;SDS011;15002;52.028;5.670;2023-04-03T08:19:13;5.57;;;1.38;;
27558;SDS011;15002;52.028;5.670;2023-04-03T08:21:41;3.20;;;0.95;;
27558;SDS011;15002;52.028;5.670;2023-04-03T08:24:08;4.75;;;1.05;;
27558;SDS011;15002;52.028;5.670;2023-04-03T08:26:34;1.23;;;0.50;;
27558;SDS011;15002;52.028;5.670;2023-04-03T08:28:59;2.38;;;1.10;;
27558;SDS011;15002;52.028;5.670;2023-04-03T08:31:25;1.90;;;0.90;;
27558;SDS011;15002;52.028;5.670;2023-04-03T08:33:51;1.70;;;0.70;;
27558;SDS011;15002;52.028;5.670;2023-04-03T08:36:21;2.22;;;0.80;;
27558;SDS011;15002;52.028;5.670;2023-04-03T08:38:49;2.25;;;0.80;;
27558;SDS011;15002;52.028;5.670;2023-04-03T08:46:40;1.13;;;0.65;;
27558;SDS011;15002;52.028;5.670;2023-04-03T08:52:35;2.17;;;0.70;;
27558;SDS011;15002;52.028;5.670;2023-04-03T08:55:05;1.27;;;0.85;;
27558;SDS011;15002;52.028;5.670;2023-04-03T08:57:41;1.77;;;0.65;;
27558;SDS011;15002;52.028;5.670;2023-04-03T09:02:48;1.77;;;0.65;;
27558;SDS011;15002;52.028;5.670;2023-04-03T09:05:20;1.10;;;0.40;;
27558;SDS011;15002;52.028;5.670;2023-04-03T09:08:05;4.72;;;0.52;;
27558;SDS011;15002;52.028;5.670;2023-04-03T09:10:48;1.48;;;0.30;;
27558;SDS011;15002;52.028;5.670;2023-04-03T09:15:49;1.17;;;0.50;;
27558;SDS011;15002;52.028;5.670;2023-04-03T09:18:50;1.08;;;0.43;;
27558;SDS011;15002;52.028;5.670;2023-04-03T09:21:20;0.75;;;0.30;;
27558;SDS011;15002;52.028;5.670;2023-04-03T09:23:57;0.30;;;0.20;;
27558;SDS011;15002;52.028;5.670;2023-04-03T09:26:26;1.25;;;0.32;;
27558;SDS011;15002;52.028;5.670;2023-04-03T09:28:59;0.40;;;0.30;;
27558;SDS011;15002;52.028;5.670;2023-04-03T09:31:31;3.60;;;0.30;;
27558;SDS011;15002;52.028;5.670;2023-04-03T09:36:58;1.40;;;0.10;;
27558;SDS011;15002;52.028;5.670;2023-04-03T09:39:31;0.73;;;0.22;;
27558;SDS011;15002;52.028;5.670;2023-04-03T09:41:59;1.42;;;0.20;;
27558;SDS011;15002;52.028;5.670;2023-04-03T09:44:53;0.77;;;0.28;;
27558;SDS011;15002;52.028;5.670;2023-04-03T09:52:49;0.40;;;0.25;;
27558;SDS011;15002;52.028;5.670;2023-04-03T09:55:23;3.70;;;0.25;;
27558;SDS011;15002;52.028;5.670;2023-04-03T09:58:03;0.40;;;0.20;;
27558;SDS011;15002;52.028;5.670;2023-04-03T10:00:34;0.65;;;0.30;;
27558;SDS011;15002;52.028;5.670;2023-04-03T10:03:01;0.80;;;0.20;;
27558;SDS011;15002;52.028;5.670;2023-04-03T10:08:38;1.67;;;0.40;;
27558;SDS011;15002;52.028;5.670;2023-04-03T10:10:50;0.93;;;0.30;;
27558;SDS011;15002;52.028;5.670;2023-04-03T10:13:32;1.23;;;0.28;;
27558;SDS011;15002;52.028;5.670;2023-04-03T10:16:09;0.90;;;0.40;;
27558;SDS011;15002;52.028;5.670;2023-04-03T10:18:44;1.52;;;0.30;;
27558;SDS011;15002;52.028;5.670;2023-04-03T10:24:11;0.65;;;0.40;;
27558;SDS011;15002;52.028;5.670;2023-04-03T10:51:01;2.03;;;0.43;;
27558;SDS011;15002;52.028;5.670;2023-04-03T10:58:45;1.50;;;0.50;;
27558;SDS011;15002;52.028;5.670;2023-04-03T11:02:19;5.10;;;0.60;;
27558;SDS011;15002;52.028;5.670;2023-04-03T11:04:16;2.60;;;0.60;;
27558;SDS011;15002;52.028;5.670;2023-04-03T11:06:49;1.73;;;0.70;;
27558;SDS011;15002;52.028;5.670;2023-04-03T11:09:26;1.25;;;0.57;;
27558;SDS011;15002;52.028;5.670;2023-04-03T11:12:09;2.35;;;0.50;;
27558;SDS011;15002;52.028;5.670;2023-04-03T11:14:42;1.60;;;0.60;;
27558;SDS011;15002;52.028;5.670;2023-04-03T11:22:38;1.77;;;0.70;;
27558;SDS011;15002;52.028;5.670;2023-04-03T11:27:48;7.63;;;0.73;;
27558;SDS011;15002;52.028;5.670;2023-04-03T11:35:37;1.20;;;0.47;;
27558;SDS011;15002;52.028;5.670;2023-04-03T11:38:10;1.55;;;0.52;;
27558;SDS011;15002;52.028;5.670;2023-04-03T11:40:44;1.67;;;0.77;;
27558;SDS011;15002;52.028;5.670;2023-04-03T11:43:33;4.80;;;0.75;;
27558;SDS011;15002;52.028;5.670;2023-04-03T11:46:04;1.90;;;0.70;;
27558;SDS011;15002;52.028;5.670;2023-04-03T11:55:55;1.30;;;0.65;;
27558;SDS011;15002;52.028;5.670;2023-04-03T11:58:24;1.77;;;0.70;;
27558;SDS011;15002;52.028;5.670;2023-04-03T12:00:55;4.57;;;0.77;;
27558;SDS011;15002;52.028;5.670;2023-04-03T12:24:37;1.63;;;0.63;;
27558;SDS011;15002;52.028;5.670;2023-04-03T12:38:41;0.93;;;0.60;;
27558;SDS011;15002;52.028;5.670;2023-04-03T12:46:39;1.02;;;0.55;;
27558;SDS011;15002;52.028;5.670;2023-04-03T12:49:20;2.67;;;0.50;;
27558;SDS011;15002;52.028;5.670;2023-04-03T12:51:48;2.17;;;0.50;;
27558;SDS011;15002;52.028;5.670;2023-04-03T12:54:19;1.88;;;0.73;;
27558;SDS011;15002;52.028;5.670;2023-04-03T12:56:48;1.17;;;0.60;;
27558;SDS011;15002;52.028;5.670;2023-04-03T12:59:19;2.60;;;0.80;;
27558;SDS011;15002;52.028;5.670;2023-04-03T13:01:57;3.30;;;0.80;;
27558;SDS011;15002;52.028;5.670;2023-04-03T13:04:25;2.00;;;0.70;;
27558;SDS011;15002;52.028;5.670;2023-04-03T13:06:53;3.13;;;0.80;;
27558;SDS011;15002;52.028;5.670;2023-04-03T13:09:20;4.03;;;0.60;;
27558;SDS011;15002;52.028;5.670;2023-04-03T13:11:49;1.25;;;0.60;;
27558;SDS011;15002;52.028;5.670;2023-04-03T13:14:17;4.57;;;0.90;;
27558;SDS011;15002;52.028;5.670;2023-04-03T13:16:58;2.42;;;0.70;;
27558;SDS011;15002;52.028;5.670;2023-04-03T13:19:27;2.22;;;0.90;;
27558;SDS011;15002;52.028;5.670;2023-04-03T13:21:58;1.13;;;0.80;;
27558;SDS011;15002;52.028;5.670;2023-04-03T13:24:28;3.17;;;0.70;;
27558;SDS011;15002;52.028;5.670;2023-04-03T13:26:55;2.97;;;0.80;;
27558;SDS011;15002;52.028;5.670;2023-04-03T13:29:27;4.28;;;0.80;;
27558;SDS011;15002;52.028;5.670;2023-04-03T13:31:59;0.85;;;0.50;;
27558;SDS011;15002;52.028;5.670;2023-04-03T13:34:35;3.70;;;0.70;;
27558;SDS011;15002;52.028;5.670;2023-04-03T13:37:03;1.17;;;0.60;;
27558;SDS011;15002;52.028;5.670;2023-04-03T13:39:30;1.77;;;1.58;;
27558;SDS011;15002;52.028;5.670;2023-04-03T13:41:59;3.75;;;1.10;;
27558;SDS011;15002;52.028;5.670;2023-04-03T13:44:32;1.50;;;0.88;;
27558;SDS011;15002;52.028;5.670;2023-04-03T13:47:01;2.10;;;1.10;;
27558;SDS011;15002;52.028;5.670;2023-04-03T13:50:12;1.45;;;0.68;;
27558;SDS011;15002;52.028;5.670;2023-04-03T13:52:43;3.63;;;0.90;;
27558;SDS011;15002;52.028;5.670;2023-04-03T13:55:17;2.08;;;0.70;;
27558;SDS011;15002;52.028;5.670;2023-04-03T13:57:55;2.95;;;0.50;;
27558;SDS011;15002;52.028;5.670;2023-04-03T14:00:32;1.92;;;0.80;;
27558;SDS011;15002;52.028;5.670;2023-04-03T14:03:02;2.13;;;0.85;;
27558;SDS011;15002;52.028;5.670;2023-04-03T14:05:29;1.52;;;0.65;;
27558;SDS011;15002;52.028;5.670;2023-04-03T14:07:54;3.08;;;0.70;;
27558;SDS011;15002;52.028;5.670;2023-04-03T14:10:20;2.45;;;0.88;;
27558;SDS011;15002;52.028;5.670;2023-04-03T14:12:47;1.58;;;0.70;;
27558;SDS011;15002;52.028;5.670;2023-04-03T14:15:23;3.35;;;0.90;;
27558;SDS011;15002;52.028;5.670;2023-04-03T14:17:51;0.85;;;0.73;;
27558;SDS011;15002;52.028;5.670;2023-04-03T14:20:18;3.70;;;0.98;;
27558;SDS011;15002;52.028;5.670;2023-04-03T14:22:46;3.03;;;0.93;;
27558;SDS011;15002;52.028;5.670;2023-04-03T14:25:13;3.40;;;0.90;;
27558;SDS011;15002;52.028;5.670;2023-04-03T14:27:41;2.13;;;0.90;;
27558;SDS011;15002;52.028;5.670;2023-04-03T14:30:21;1.25;;;0.70;;
27558;SDS011;15002;52.028;5.670;2023-04-03T14:32:52;3.95;;;1.00;;
27558;SDS011;15002;52.028;5.670;2023-04-03T14:35:18;2.90;;;1.20;;
27558;SDS011;15002;52.028;5.670;2023-04-03T14:37:44;6.00;;;1.17;;
27558;SDS011;15002;52.028;5.670;2023-04-03T14:40:16;2.58;;;0.88;;
27558;SDS011;15002;52.028;5.670;2023-04-03T14:42:45;2.72;;;0.98;;
27558;SDS011;15002;52.028;5.670;2023-04-03T14:45:13;5.35;;;1.00;;
27558;SDS011;15002;52.028;5.670;2023-04-03T14:47:44;8.55;;;0.85;;
27558;SDS011;15002;52.028;5.670;2023-04-03T14:50:16;3.42;;;1.25;;
27558;SDS011;15002;52.028;5.670;2023-04-03T14:52:45;3.20;;;1.17;;
27558;SDS011;15002;52.028;5.670;2023-04-03T14:55:13;3.15;;;1.55;;
27558;SDS011;15002;52.028;5.670;2023-04-03T14:57:40;2.30;;;1.08;;
27558;SDS011;15002;52.028;5.670;2023-04-03T15:00:16;3.17;;;1.20;;
27558;SDS011;15002;52.028;5.670;2023-04-03T15:02:43;3.08;;;0.93;;
27558;SDS011;15002;52.028;5.670;2023-04-03T15:05:10;2.05;;;0.93;;
27558;SDS011;15002;52.028;5.670;2023-04-03T15:07:38;3.13;;;0.98;;
27558;SDS011;15002;52.028;5.670;2023-04-03T15:10:25;3.83;;;0.90;;
27558;SDS011;15002;52.028;5.670;2023-04-03T15:12:52;2.88;;;0.88;;
27558;SDS011;15002;52.028;5.670;2023-04-03T15:15:19;4.20;;;1.17;;
27558;SDS011;15002;52.028;5.670;2023-04-03T15:17:47;2.45;;;1.25;;
27558;SDS011;15002;52.028;5.670;2023-04-03T15:20:23;2.78;;;1.20;;
27558;SDS011;15002;52.028;5.670;2023-04-03T15:22:51;2.47;;;1.17;;
27558;SDS011;15002;52.028;5.670;2023-04-03T15:25:17;2.63;;;1.05;;
27558;SDS011;15002;52.028;5.670;2023-04-03T15:27:43;3.22;;;0.95;;
27558;SDS011;15002;52.028;5.670;2023-04-03T15:30:16;3.30;;;1.00;;
27558;SDS011;15002;52.028;5.670;2023-04-03T15:32:43;3.17;;;1.10;;
27558;SDS011;15002;52.028;5.670;2023-04-03T15:35:09;1.75;;;1.10;;
27558;SDS011;15002;52.028;5.670;2023-04-03T15:37:35;3.92;;;1.00;;
27558;SDS011;15002;52.028;5.670;2023-04-03T15:40:01;4.50;;;1.08;;
27558;SDS011;15002;52.028;5.670;2023-04-03T15:42:27;2.88;;;1.00;;
27558;SDS011;15002;52.028;5.670;2023-04-03T15:44:53;3.15;;;1.20;;
27558;SDS011;15002;52.028;5.670;2023-04-03T15:47:18;1.98;;;1.13;;
27558;SDS011;15002;52.028;5.670;2023-04-03T15:49:44;4.93;;;1.20;;
27558;SDS011;15002;52.028;5.670;2023-04-03T15:52:10;2.30;;;1.08;;
27558;SDS011;15002;52.028;5.670;2023-04-03T15:54:35;4.53;;;1.35;;
27558;SDS011;15002;52.028;5.670;2023-04-03T15:57:01;3.38;;;1.05;;
27558;SDS011;15002;52.028;5.670;2023-04-03T15:59:27;3.88;;;1.23;;
27558;SDS011;15002;52.028;5.670;2023-04-03T16:01:55;4.07;;;1.42;;
27558;SDS011;15002;52.028;5.670;2023-04-03T16:04:21;2.88;;;0.80;;
27558;SDS011;15002;52.028;5.670;2023-04-03T16:06:47;1.92;;;0.95;;
27558;SDS011;15002;52.028;5.670;2023-04-03T16:09:13;2.40;;;1.00;;
27558;SDS011;15002;52.028;5.670;2023-04-03T16:11:39;3.30;;;1.25;;
27558;SDS011;15002;52.028;5.670;2023-04-03T16:14:05;4.45;;;1.35;;
27558;SDS011;15002;52.028;5.670;2023-04-03T16:16:32;4.25;;;1.15;;
27558;SDS011;15002;52.028;5.670;2023-04-03T16:18:58;5.95;;;1.65;;
27558;SDS011;15002;52.028;5.670;2023-04-03T16:21:24;2.45;;;1.02;;
27558;SDS011;15002;52.028;5.670;2023-04-03T16:23:51;3.22;;;1.25;;
27558;SDS011;15002;52.028;5.670;2023-04-03T16:26:17;3.17;;;0.82;;
27558;SDS011;15002;52.028;5.670;2023-04-03T16:28:43;3.65;;;1.48;;
27558;SDS011;15002;52.028;5.670;2023-04-03T16:31:09;2.50;;;1.20;;
27558;SDS011;15002;52.028;5.670;2023-04-03T16:33:35;2.80;;;1.17;;
27558;SDS011;15002;52.028;5.670;2023-04-03T16:36:02;2.65;;;1.17;;
27558;SDS011;15002;52.028;5.670;2023-04-03T16:38:29;3.88;;;1.15;;
27558;SDS011;15002;52.028;5.670;2023-04-03T16:40:54;2.95;;;1.08;;
27558;SDS011;15002;52.028;5.670;2023-04-03T16:43:24;4.22;;;1.15;;
27558;SDS011;15002;52.028;5.670;2023-04-03T16:45:50;6.55;;;0.95;;
27558;SDS011;15002;52.028;5.670;2023-04-03T16:48:16;2.60;;;1.00;;
27558;SDS011;15002;52.028;5.670;2023-04-03T16:50:41;1.95;;;0.98;;
27558;SDS011;15002;52.028;5.670;2023-04-03T16:53:07;2.10;;;0.73;;
27558;SDS011;15002;52.028;5.670;2023-04-03T16:55:35;3.20;;;0.93;;
27558;SDS011;15002;52.028;5.670;2023-04-03T16:58:00;2.97;;;1.13;;
27558;SDS011;15002;52.028;5.670;2023-04-03T17:00:27;2.50;;;1.10;;